sensor_id;sensor_type;location;lat;lon;timestamp;temperature;humidity
11619;DHT22;5865;48.776;9.280;2024-03-02T00:00:30;4.40;99.90
11619;DHT22;5865;48.776;9.280;2024-03-02T00:07:54;4.30;99.90
11619;DHT22;5865;48.776;9.280;2024-03-02T00:10:23;4.30;99.90
11619;DHT22;5865;48.776;9.280;2024-03-02T00:12:55;4.40;99.90
11619;DHT22;5865;48.776;9.280;2024-03-02T00:15:40;4.30;99.90
11619;DHT22;5865;48.776;9.280;2024-03-02T00:18:09;4.30;99.90
11619;DHT22;5865;48.776;9.280;2024-03-02T00:20:38;4.20;99.90
11619;DHT22;5865;48.776;9.280;2024-03-02T00:23:08;4.20;99.90
11619;DHT22;5865;48.776;9.280;2024-03-02T00:25:41;4.10;99.90
11619;DHT22;5865;48.776;9.280;2024-03-02T00:28:27;4.00;99.90
11619;DHT22;5865;48.776;9.280;2024-03-02T00:30:58;4.00;99.90
11619;DHT22;5865;48.776;9.280;2024-03-02T00:33:28;4.00;99.90
11619;DHT22;5865;48.776;9.280;2024-03-02T00:35:58;3.90;99.90
11619;DHT22;5865;48.776;9.280;2024-03-02T00:38:26;3.90;99.90
11619;DHT22;5865;48.776;9.280;2024-03-02T00:43:47;3.90;99.90
11619;DHT22;5865;48.776;9.280;2024-03-02T00:46:18;3.90;99.90
11619;DHT22;5865;48.776;9.280;2024-03-02T00:48:53;3.80;99.90
11619;DHT22;5865;48.776;9.280;2024-03-02T00:53:54;3.90;99.90
11619;DHT22;5865;48.776;9.280;2024-03-02T01:03:45;3.90;99.90
11619;DHT22;5865;48.776;9.280;2024-03-02T01:06:13;4.00;99.90
11619;DHT22;5865;48.776;9.280;2024-03-02T01:08:41;4.10;99.90
11619;DHT22;5865;48.776;9.280;2024-03-02T01:11:08;4.10;99.90
11619;DHT22;5865;48.776;9.280;2024-03-02T01:18:30;4.00;99.90
11619;DHT22;5865;48.776;9.280;2024-03-02T01:20:57;3.90;99.90
11619;DHT22;5865;48.776;9.280;2024-03-02T01:25:54;3.90;99.90
11619;DHT22;5865;48.776;9.280;2024-03-02T01:33:16;3.80;99.90
11619;DHT22;5865;48.776;9.280;2024-03-02T01:35:43;3.70;99.90
11619;DHT22;5865;48.776;9.280;2024-03-02T01:38:10;3.70;99.90
11619;DHT22;5865;48.776;9.280;2024-03-02T01:43:06;3.70;99.90
11619;DHT22;5865;48.776;9.280;2024-03-02T01:50:31;3.50;99.90
11619;DHT22;5865;48.776;9.280;2024-03-02T01:52:59;3.60;99.90
11619;DHT22;5865;48.776;9.280;2024-03-02T02:00:25;3.50;99.90
11619;DHT22;5865;48.776;9.280;2024-03-02T02:10:14;3.30;99.90
11619;DHT22;5865;48.776;9.280;2024-03-02T02:12:41;3.20;99.90
11619;DHT22;5865;48.776;9.280;2024-03-02T02:20:20;2.80;99.90
11619;DHT22;5865;48.776;9.280;2024-03-02T02:22:58;2.80;99.90
11619;DHT22;5865;48.776;9.280;2024-03-02T02:25:26;2.80;99.90
11619;DHT22;5865;48.776;9.280;2024-03-02T02:27:53;2.70;99.90
11619;DHT22;5865;48.776;9.280;2024-03-02T02:30:24;2.70;99.90
11619;DHT22;5865;48.776;9.280;2024-03-02T02:32:51;2.60;99.90
11619;DHT22;5865;48.776;9.280;2024-03-02T02:35:18;2.50;99.90
11619;DHT22;5865;48.776;9.280;2024-03-02T02:37:46;2.40;99.90
11619;DHT22;5865;48.776;9.280;2024-03-02T02:40:15;2.30;99.90
11619;DHT22;5865;48.776;9.280;2024-03-02T02:47:40;2.30;99.90
11619;DHT22;5865;48.776;9.280;2024-03-02T02:50:08;2.30;99.90
11619;DHT22;5865;48.776;9.280;2024-03-02T02:52:36;2.20;99.90
11619;DHT22;5865;48.776;9.280;2024-03-02T02:55:06;2.20;99.90
11619;DHT22;5865;48.776;9.280;2024-03-02T03:00:05;2.10;99.90
11619;DHT22;5865;48.776;9.280;2024-03-02T03:02:37;2.00;99.90
11619;DHT22;5865;48.776;9.280;2024-03-02T03:05:05;1.90;99.90
11619;DHT22;5865;48.776;9.280;2024-03-02T03:10:00;1.90;99.90
11619;DHT22;5865;48.776;9.280;2024-03-02T03:12:28;1.90;99.90
11619;DHT22;5865;48.776;9.280;2024-03-02T03:14:58;2.00;99.90
11619;DHT22;5865;48.776;9.280;2024-03-02T03:17:25;1.90;99.90
11619;DHT22;5865;48.776;9.280;2024-03-02T03:19:52;2.10;99.90
11619;DHT22;5865;48.776;9.280;2024-03-02T03:29:42;2.10;99.90
11619;DHT22;5865;48.776;9.280;2024-03-02T03:32:11;2.00;99.90
11619;DHT22;5865;48.776;9.280;2024-03-02T03:37:05;1.80;99.90
11619;DHT22;5865;48.776;9.280;2024-03-02T03:39:34;1.80;99.90
11619;DHT22;5865;48.776;9.280;2024-03-02T03:44:28;1.70;99.90
11619;DHT22;5865;48.776;9.280;2024-03-02T03:49:24;1.60;99.90
11619;DHT22;5865;48.776;9.280;2024-03-02T03:56:46;1.40;99.90
11619;DHT22;5865;48.776;9.280;2024-03-02T03:59:13;1.40;99.90
11619;DHT22;5865;48.776;9.280;2024-03-02T04:01:40;1.40;99.90
11619;DHT22;5865;48.776;9.280;2024-03-02T04:04:06;1.40;99.90
11619;DHT22;5865;48.776;9.280;2024-03-02T04:11:30;1.40;99.90
11619;DHT22;5865;48.776;9.280;2024-03-02T04:16:24;1.40;99.90
11619;DHT22;5865;48.776;9.280;2024-03-02T04:18:51;1.40;99.90
11619;DHT22;5865;48.776;9.280;2024-03-02T04:21:18;1.40;99.90
11619;DHT22;5865;48.776;9.280;2024-03-02T04:26:14;1.20;99.90
11619;DHT22;5865;48.776;9.280;2024-03-02T04:31:12;1.10;99.90
11619;DHT22;5865;48.776;9.280;2024-03-02T04:33:40;1.10;99.90
11619;DHT22;5865;48.776;9.280;2024-03-02T04:36:06;1.10;99.90
11619;DHT22;5865;48.776;9.280;2024-03-02T04:38:35;1.20;99.90
11619;DHT22;5865;48.776;9.280;2024-03-02T04:41:04;1.20;99.90
11619;DHT22;5865;48.776;9.280;2024-03-02T04:48:26;1.20;99.90
11619;DHT22;5865;48.776;9.280;2024-03-02T04:50:53;1.20;99.90
11619;DHT22;5865;48.776;9.280;2024-03-02T04:58:45;1.00;99.90
11619;DHT22;5865;48.776;9.280;2024-03-02T05:01:12;1.00;99.90
11619;DHT22;5865;48.776;9.280;2024-03-02T05:03:39;1.00;99.90
11619;DHT22;5865;48.776;9.280;2024-03-02T05:11:01;1.00;99.90
11619;DHT22;5865;48.776;9.280;2024-03-02T05:13:50;1.10;99.90
11619;DHT22;5865;48.776;9.280;2024-03-02T05:21:11;1.30;99.90
11619;DHT22;5865;48.776;9.280;2024-03-02T05:23:39;1.20;99.90
11619;DHT22;5865;48.776;9.280;2024-03-02T05:26:06;1.10;99.90
11619;DHT22;5865;48.776;9.280;2024-03-02T05:28:33;1.00;99.90
11619;DHT22;5865;48.776;9.280;2024-03-02T05:31:03;1.10;99.90
11619;DHT22;5865;48.776;9.280;2024-03-02T05:33:30;1.10;99.90
11619;DHT22;5865;48.776;9.280;2024-03-02T05:35:58;1.10;99.90
11619;DHT22;5865;48.776;9.280;2024-03-02T05:38:27;1.00;99.90
11619;DHT22;5865;48.776;9.280;2024-03-02T05:40:54;1.00;99.90
11619;DHT22;5865;48.776;9.280;2024-03-02T05:43:21;1.10;99.90
11619;DHT22;5865;48.776;9.280;2024-03-02T05:48:16;1.10;99.90
11619;DHT22;5865;48.776;9.280;2024-03-02T05:50:44;1.20;99.90
11619;DHT22;5865;48.776;9.280;2024-03-02T05:55:38;1.30;99.90
11619;DHT22;5865;48.776;9.280;2024-03-02T06:03:17;1.30;99.90
11619;DHT22;5865;48.776;9.280;2024-03-02T06:05:45;1.30;99.90
11619;DHT22;5865;48.776;9.280;2024-03-02T06:10:42;1.50;99.90
11619;DHT22;5865;48.776;9.280;2024-03-02T06:13:09;1.60;99.90
11619;DHT22;5865;48.776;9.280;2024-03-02T06:18:03;1.70;99.90
11619;DHT22;5865;48.776;9.280;2024-03-02T06:20:33;1.70;99.90
11619;DHT22;5865;48.776;9.280;2024-03-02T06:30:23;2.00;99.90
11619;DHT22;5865;48.776;9.280;2024-03-02T06:32:50;2.00;99.90
11619;DHT22;5865;48.776;9.280;2024-03-02T06:54:59;2.60;99.90
11619;DHT22;5865;48.776;9.280;2024-03-02T06:59:53;2.70;99.90
11619;DHT22;5865;48.776;9.280;2024-03-02T07:02:24;2.90;99.90
11619;DHT22;5865;48.776;9.280;2024-03-02T07:07:19;3.10;99.90
11619;DHT22;5865;48.776;9.280;2024-03-02T07:20:05;3.80;99.90
11619;DHT22;5865;48.776;9.280;2024-03-02T07:27:30;4.30;99.90
11619;DHT22;5865;48.776;9.280;2024-03-02T07:29:58;4.50;99.90
11619;DHT22;5865;48.776;9.280;2024-03-02T07:34:52;4.90;99.90
11619;DHT22;5865;48.776;9.280;2024-03-02T07:44:44;5.50;99.90
11619;DHT22;5865;48.776;9.280;2024-03-02T07:54:33;5.60;99.90
11619;DHT22;5865;48.776;9.280;2024-03-02T08:04:50;5.70;99.90
11619;DHT22;5865;48.776;9.280;2024-03-02T08:09:44;5.70;99.90
11619;DHT22;5865;48.776;9.280;2024-03-02T08:14:38;5.70;99.90
11619;DHT22;5865;48.776;9.280;2024-03-02T08:17:07;5.70;99.90
11619;DHT22;5865;48.776;9.280;2024-03-02T08:19:35;5.70;99.90
11619;DHT22;5865;48.776;9.280;2024-03-02T08:22:03;5.80;99.90
11619;DHT22;5865;48.776;9.280;2024-03-02T08:26:57;6.00;99.90
11619;DHT22;5865;48.776;9.280;2024-03-02T08:29:25;6.00;99.90
11619;DHT22;5865;48.776;9.280;2024-03-02T08:41:44;6.50;99.90
11619;DHT22;5865;48.776;9.280;2024-03-02T08:44:12;6.60;99.90
11619;DHT22;5865;48.776;9.280;2024-03-02T15:01:11;19.90;52.30
11619;DHT22;5865;48.776;9.280;2024-03-02T15:03:38;19.50;53.70
11619;DHT22;5865;48.776;9.280;2024-03-02T15:06:06;19.60;55.40
11619;DHT22;5865;48.776;9.280;2024-03-02T15:08:33;20.60;52.60
11619;DHT22;5865;48.776;9.280;2024-03-02T15:11:00;20.60;52.70
11619;DHT22;5865;48.776;9.280;2024-03-02T15:13:29;21.00;53.20
11619;DHT22;5865;48.776;9.280;2024-03-02T15:15:56;20.50;50.30
11619;DHT22;5865;48.776;9.280;2024-03-02T15:18:25;20.00;52.60
11619;DHT22;5865;48.776;9.280;2024-03-02T15:20:52;20.40;52.00
11619;DHT22;5865;48.776;9.280;2024-03-02T15:23:20;19.30;52.40
11619;DHT22;5865;48.776;9.280;2024-03-02T15:25:47;19.00;53.60
11619;DHT22;5865;48.776;9.280;2024-03-02T15:28:14;18.50;55.60
11619;DHT22;5865;48.776;9.280;2024-03-02T15:30:41;17.30;57.40
11619;DHT22;5865;48.776;9.280;2024-03-02T15:33:08;16.40;60.10
11619;DHT22;5865;48.776;9.280;2024-03-02T15:35:36;16.00;61.80
11619;DHT22;5865;48.776;9.280;2024-03-02T15:38:03;15.80;62.50
11619;DHT22;5865;48.776;9.280;2024-03-02T15:40:30;15.30;64.00
11619;DHT22;5865;48.776;9.280;2024-03-02T15:42:57;15.00;65.60
11619;DHT22;5865;48.776;9.280;2024-03-02T15:45:24;14.50;69.90
11619;DHT22;5865;48.776;9.280;2024-03-02T15:47:58;14.40;72.00
11619;DHT22;5865;48.776;9.280;2024-03-02T15:50:25;14.20;74.70
11619;DHT22;5865;48.776;9.280;2024-03-02T15:52:54;14.00;77.60
11619;DHT22;5865;48.776;9.280;2024-03-02T15:55:21;13.70;80.60
11619;DHT22;5865;48.776;9.280;2024-03-02T15:57:48;13.70;82.10
11619;DHT22;5865;48.776;9.280;2024-03-02T16:00:15;13.60;86.30
11619;DHT22;5865;48.776;9.280;2024-03-02T16:02:42;13.40;88.90
11619;DHT22;5865;48.776;9.280;2024-03-02T16:05:09;13.30;86.80
11619;DHT22;5865;48.776;9.280;2024-03-02T16:07:36;13.20;87.80
11619;DHT22;5865;48.776;9.280;2024-03-02T16:10:06;13.10;89.60
11619;DHT22;5865;48.776;9.280;2024-03-02T16:12:33;13.00;91.20
11619;DHT22;5865;48.776;9.280;2024-03-02T16:15:00;12.90;92.70
11619;DHT22;5865;48.776;9.280;2024-03-02T16:17:27;12.90;93.00
11619;DHT22;5865;48.776;9.280;2024-03-02T16:19:54;12.80;94.10
11619;DHT22;5865;48.776;9.280;2024-03-02T16:22:23;12.80;94.70
11619;DHT22;5865;48.776;9.280;2024-03-02T16:24:51;12.60;98.10
11619;DHT22;5865;48.776;9.280;2024-03-02T16:27:19;12.50;98.20
11619;DHT22;5865;48.776;9.280;2024-03-02T16:29:46;12.40;99.00
11619;DHT22;5865;48.776;9.280;2024-03-02T16:32:13;12.20;99.90
11619;DHT22;5865;48.776;9.280;2024-03-02T16:34:40;12.10;99.90
11619;DHT22;5865;48.776;9.280;2024-03-02T16:37:07;12.00;99.90
11619;DHT22;5865;48.776;9.280;2024-03-02T16:39:34;12.00;99.90
11619;DHT22;5865;48.776;9.280;2024-03-02T16:42:01;11.90;99.90
11619;DHT22;5865;48.776;9.280;2024-03-02T16:44:30;11.80;99.90
11619;DHT22;5865;48.776;9.280;2024-03-02T16:46:57;11.70;99.90
11619;DHT22;5865;48.776;9.280;2024-03-02T16:49:24;11.70;99.90
11619;DHT22;5865;48.776;9.280;2024-03-02T16:51:51;11.70;99.90
11619;DHT22;5865;48.776;9.280;2024-03-02T16:54:18;11.70;99.90
11619;DHT22;5865;48.776;9.280;2024-03-02T16:56:45;11.60;99.90
11619;DHT22;5865;48.776;9.280;2024-03-02T16:59:12;11.50;99.90
11619;DHT22;5865;48.776;9.280;2024-03-02T17:01:40;11.30;99.90
11619;DHT22;5865;48.776;9.280;2024-03-02T17:04:07;11.30;99.90
11619;DHT22;5865;48.776;9.280;2024-03-02T17:06:35;11.10;99.90
11619;DHT22;5865;48.776;9.280;2024-03-02T17:09:02;10.90;99.90
11619;DHT22;5865;48.776;9.280;2024-03-02T17:11:29;10.60;99.90
11619;DHT22;5865;48.776;9.280;2024-03-02T17:13:57;10.50;99.90
11619;DHT22;5865;48.776;9.280;2024-03-02T17:16:25;10.30;99.90
11619;DHT22;5865;48.776;9.280;2024-03-02T17:18:54;10.10;99.90
11619;DHT22;5865;48.776;9.280;2024-03-02T17:21:21;10.30;99.90
11619;DHT22;5865;48.776;9.280;2024-03-02T17:23:48;10.10;99.90
11619;DHT22;5865;48.776;9.280;2024-03-02T17:26:15;10.00;99.90
11619;DHT22;5865;48.776;9.280;2024-03-02T17:28:42;9.90;99.90
11619;DHT22;5865;48.776;9.280;2024-03-02T17:31:10;9.80;99.90
11619;DHT22;5865;48.776;9.280;2024-03-02T17:33:37;9.90;99.90
11619;DHT22;5865;48.776;9.280;2024-03-02T17:36:06;10.10;99.90
11619;DHT22;5865;48.776;9.280;2024-03-02T17:38:33;10.10;99.90
11619;DHT22;5865;48.776;9.280;2024-03-02T17:43:29;10.00;99.90
11619;DHT22;5865;48.776;9.280;2024-03-02T17:45:56;10.20;99.90
11619;DHT22;5865;48.776;9.280;2024-03-02T17:48:25;10.10;99.90
11619;DHT22;5865;48.776;9.280;2024-03-02T17:50:52;10.00;99.90
11619;DHT22;5865;48.776;9.280;2024-03-02T17:55:47;10.20;99.90
11619;DHT22;5865;48.776;9.280;2024-03-02T17:58:14;10.20;99.90
11619;DHT22;5865;48.776;9.280;2024-03-02T18:00:42;10.30;99.90
11619;DHT22;5865;48.776;9.280;2024-03-02T18:03:10;10.30;99.90
11619;DHT22;5865;48.776;9.280;2024-03-02T18:05:37;10.40;99.90
11619;DHT22;5865;48.776;9.280;2024-03-02T18:08:05;10.20;99.90
11619;DHT22;5865;48.776;9.280;2024-03-02T18:10:34;10.50;99.90
11619;DHT22;5865;48.776;9.280;2024-03-02T18:13:01;10.70;99.90
11619;DHT22;5865;48.776;9.280;2024-03-02T18:15:27;10.80;99.90
11619;DHT22;5865;48.776;9.280;2024-03-02T18:17:54;10.80;99.90
11619;DHT22;5865;48.776;9.280;2024-03-02T18:20:21;10.80;99.90
11619;DHT22;5865;48.776;9.280;2024-03-02T18:22:48;10.80;99.90
11619;DHT22;5865;48.776;9.280;2024-03-02T18:25:15;10.80;99.90
11619;DHT22;5865;48.776;9.280;2024-03-02T18:27:44;10.80;99.90
11619;DHT22;5865;48.776;9.280;2024-03-02T18:32:39;10.80;99.90
11619;DHT22;5865;48.776;9.280;2024-03-02T18:35:07;10.80;99.90
11619;DHT22;5865;48.776;9.280;2024-03-02T18:37:34;10.80;99.90
11619;DHT22;5865;48.776;9.280;2024-03-02T18:40:02;10.80;99.90
11619;DHT22;5865;48.776;9.280;2024-03-02T18:42:30;10.80;99.90
11619;DHT22;5865;48.776;9.280;2024-03-02T18:44:59;10.80;99.90
11619;DHT22;5865;48.776;9.280;2024-03-02T18:47:29;10.90;99.90
11619;DHT22;5865;48.776;9.280;2024-03-02T18:49:56;11.10;99.90
11619;DHT22;5865;48.776;9.280;2024-03-02T18:52:23;10.70;99.90
11619;DHT22;5865;48.776;9.280;2024-03-02T18:54:51;10.70;99.90
11619;DHT22;5865;48.776;9.280;2024-03-02T18:57:18;10.70;99.90
11619;DHT22;5865;48.776;9.280;2024-03-02T18:59:45;10.60;99.90
11619;DHT22;5865;48.776;9.280;2024-03-02T19:02:13;10.60;99.90
11619;DHT22;5865;48.776;9.280;2024-03-02T19:04:40;10.50;99.90
11619;DHT22;5865;48.776;9.280;2024-03-02T19:07:07;10.50;99.90
11619;DHT22;5865;48.776;9.280;2024-03-02T19:09:36;10.50;99.90
11619;DHT22;5865;48.776;9.280;2024-03-02T19:19:26;10.20;99.90
11619;DHT22;5865;48.776;9.280;2024-03-02T19:21:53;10.30;99.90
11619;DHT22;5865;48.776;9.280;2024-03-02T19:24:20;10.20;99.90
11619;DHT22;5865;48.776;9.280;2024-03-02T19:29:15;10.20;99.90
11619;DHT22;5865;48.776;9.280;2024-03-02T19:31:42;10.20;99.90
11619;DHT22;5865;48.776;9.280;2024-03-02T19:34:08;10.10;99.90
11619;DHT22;5865;48.776;9.280;2024-03-02T19:36:37;10.20;99.90
11619;DHT22;5865;48.776;9.280;2024-03-02T19:39:04;10.10;99.90
11619;DHT22;5865;48.776;9.280;2024-03-02T19:41:31;10.00;99.90
11619;DHT22;5865;48.776;9.280;2024-03-02T19:43:58;10.00;99.90
11619;DHT22;5865;48.776;9.280;2024-03-02T19:46:25;10.00;99.90
11619;DHT22;5865;48.776;9.280;2024-03-02T19:48:51;9.90;99.90
11619;DHT22;5865;48.776;9.280;2024-03-02T19:51:19;9.80;99.90
11619;DHT22;5865;48.776;9.280;2024-03-02T19:53:47;9.80;99.90
11619;DHT22;5865;48.776;9.280;2024-03-02T19:56:18;9.70;99.90
11619;DHT22;5865;48.776;9.280;2024-03-02T20:01:12;9.80;99.90
11619;DHT22;5865;48.776;9.280;2024-03-02T20:03:39;9.70;99.90
11619;DHT22;5865;48.776;9.280;2024-03-02T20:06:06;9.40;99.90
11619;DHT22;5865;48.776;9.280;2024-03-02T20:08:33;9.40;99.90
11619;DHT22;5865;48.776;9.280;2024-03-02T20:11:03;9.30;99.90
11619;DHT22;5865;48.776;9.280;2024-03-02T20:13:30;9.10;99.90
11619;DHT22;5865;48.776;9.280;2024-03-02T20:15:57;9.30;99.90
11619;DHT22;5865;48.776;9.280;2024-03-02T20:18:25;9.00;99.90
11619;DHT22;5865;48.776;9.280;2024-03-02T20:20:52;9.00;99.90
11619;DHT22;5865;48.776;9.280;2024-03-02T20:23:19;8.90;99.90
11619;DHT22;5865;48.776;9.280;2024-03-02T20:25:45;9.10;99.90
11619;DHT22;5865;48.776;9.280;2024-03-02T20:28:14;9.30;99.90
11619;DHT22;5865;48.776;9.280;2024-03-02T20:30:42;9.20;99.90
11619;DHT22;5865;48.776;9.280;2024-03-02T20:33:09;9.20;99.90
11619;DHT22;5865;48.776;9.280;2024-03-02T20:35:36;9.20;99.90
11619;DHT22;5865;48.776;9.280;2024-03-02T20:38:04;9.20;99.90
11619;DHT22;5865;48.776;9.280;2024-03-02T20:40:31;9.20;99.90
11619;DHT22;5865;48.776;9.280;2024-03-02T20:43:00;9.20;99.90
11619;DHT22;5865;48.776;9.280;2024-03-02T20:45:30;9.00;99.90
11619;DHT22;5865;48.776;9.280;2024-03-02T20:47:57;9.00;99.90
11619;DHT22;5865;48.776;9.280;2024-03-02T20:50:24;9.10;99.90
11619;DHT22;5865;48.776;9.280;2024-03-02T20:52:51;9.10;99.90
11619;DHT22;5865;48.776;9.280;2024-03-02T20:55:17;8.80;99.90
11619;DHT22;5865;48.776;9.280;2024-03-02T21:00:12;8.90;99.90
11619;DHT22;5865;48.776;9.280;2024-03-02T21:02:41;8.80;99.90
11619;DHT22;5865;48.776;9.280;2024-03-02T21:07:35;8.70;99.90
11619;DHT22;5865;48.776;9.280;2024-03-02T21:10:04;8.60;99.90
11619;DHT22;5865;48.776;9.280;2024-03-02T21:12:34;8.60;99.90
11619;DHT22;5865;48.776;9.280;2024-03-02T21:15:01;8.60;99.90
11619;DHT22;5865;48.776;9.280;2024-03-02T21:17:28;8.60;99.90
11619;DHT22;5865;48.776;9.280;2024-03-02T21:22:23;8.70;99.90
11619;DHT22;5865;48.776;9.280;2024-03-02T21:24:50;8.30;99.90
11619;DHT22;5865;48.776;9.280;2024-03-02T21:27:17;8.20;99.90
11619;DHT22;5865;48.776;9.280;2024-03-02T21:29:44;8.20;99.90
11619;DHT22;5865;48.776;9.280;2024-03-02T21:34:40;8.60;99.90
11619;DHT22;5865;48.776;9.280;2024-03-02T21:37:08;8.60;99.90
11619;DHT22;5865;48.776;9.280;2024-03-02T21:42:03;8.40;99.90
11619;DHT22;5865;48.776;9.280;2024-03-02T21:44:30;8.40;99.90
11619;DHT22;5865;48.776;9.280;2024-03-02T21:46:58;8.50;99.90
11619;DHT22;5865;48.776;9.280;2024-03-02T21:49:25;8.40;99.90
11619;DHT22;5865;48.776;9.280;2024-03-02T21:54:20;8.30;99.90
11619;DHT22;5865;48.776;9.280;2024-03-02T21:56:47;8.40;99.90
11619;DHT22;5865;48.776;9.280;2024-03-02T21:59:15;8.40;99.90
11619;DHT22;5865;48.776;9.280;2024-03-02T23:39:40;5.90;99.90
